Delray, West Virginia
Current Conditions -  °F | °C
As of 10:15 AM on Thursday 30 Oct 2014 (Local Time) from KOKV Reporting Station
Overcast Overcast  
Wind Chill: 52°   Ceiling: 6000
Heat Index: 52°   Visibility: 10mi
Dew Point: 32°   Wind: 9mph
Humidity: 47%   Direction: 310°NW
Pressure: 30.08"   Gusts: NA
Location:  39.21°N, 78.59°W
Report Text: KOKV 301415Z AUTO 31008KT 10SM OVC060 11/00 A3008 RMK AO2
Loading
Personal Weather Stations






























Interactive Weather Map
Tropical Storm Tracking
New forecast layout! Learn more

10-Day Weather Forecast

Advertisements
Track Severe Weather on mobile